sensor_id;sensor_type;location;lat;lon;timestamp;pressure;altitude;pressure_sealevel;temperature;humidity
56912;BME280;42800;53.928;27.662;2023-03-15T00:01:34;96744.59;;;7.82;100.00
56912;BME280;42800;53.928;27.662;2023-03-15T00:04:00;96762.97;;;7.78;100.00
56912;BME280;42800;53.928;27.662;2023-03-15T00:06:26;96760.25;;;7.78;100.00
56912;BME280;42800;53.928;27.662;2023-03-15T00:08:52;96750.91;;;7.75;100.00
56912;BME280;42800;53.928;27.662;2023-03-15T00:11:18;96747.84;;;7.70;100.00
56912;BME280;42800;53.928;27.662;2023-03-15T00:13:45;96750.03;;;7.86;100.00
56912;BME280;42800;53.928;27.662;2023-03-15T00:16:11;96748.59;;;7.74;100.00
56912;BME280;42800;53.928;27.662;2023-03-15T00:18:41;96756.31;;;7.79;100.00
56912;BME280;42800;53.928;27.662;2023-03-15T00:21:07;96753.50;;;7.90;100.00
56912;BME280;42800;53.928;27.662;2023-03-15T00:23:34;96761.81;;;7.75;100.00
56912;BME280;42800;53.928;27.662;2023-03-15T00:26:00;96768.41;;;8.16;100.00
56912;BME280;42800;53.928;27.662;2023-03-15T00:28:26;96766.47;;;7.78;100.00
56912;BME280;42800;53.928;27.662;2023-03-15T00:31:02;96733.47;;;8.04;100.00
56912;BME280;42800;53.928;27.662;2023-03-15T00:33:28;96765.88;;;7.98;100.00
56912;BME280;42800;53.928;27.662;2023-03-15T00:36:01;96785.81;;;7.91;100.00
56912;BME280;42800;53.928;27.662;2023-03-15T00:38:27;96773.91;;;8.12;100.00
56912;BME280;42800;53.928;27.662;2023-03-15T00:40:53;96774.00;;;8.05;100.00
56912;BME280;42800;53.928;27.662;2023-03-15T00:43:19;96769.13;;;7.86;100.00
56912;BME280;42800;53.928;27.662;2023-03-15T00:45:45;96781.88;;;7.96;100.00
56912;BME280;42800;53.928;27.662;2023-03-15T00:48:11;96769.63;;;8.11;100.00
56912;BME280;42800;53.928;27.662;2023-03-15T00:50:37;96793.84;;;8.06;100.00
56912;BME280;42800;53.928;27.662;2023-03-15T00:53:03;96768.38;;;8.19;100.00
56912;BME280;42800;53.928;27.662;2023-03-15T00:55:29;96771.69;;;8.04;100.00
56912;BME280;42800;53.928;27.662;2023-03-15T00:57:55;96782.97;;;8.02;100.00
56912;BME280;42800;53.928;27.662;2023-03-15T01:00:22;96786.06;;;8.08;100.00
56912;BME280;42800;53.928;27.662;2023-03-15T01:02:49;96776.16;;;8.21;100.00
56912;BME280;42800;53.928;27.662;2023-03-15T01:05:15;96743.19;;;8.05;100.00
56912;BME280;42800;53.928;27.662;2023-03-15T01:07:41;96746.47;;;7.89;100.00
56912;BME280;42800;53.928;27.662;2023-03-15T01:10:11;96755.44;;;7.89;100.00
56912;BME280;42800;53.928;27.662;2023-03-15T01:12:37;96710.63;;;7.90;100.00
56912;BME280;42800;53.928;27.662;2023-03-15T01:15:05;96657.59;;;7.91;100.00
56912;BME280;42800;53.928;27.662;2023-03-15T01:17:32;96616.25;;;7.96;100.00
56912;BME280;42800;53.928;27.662;2023-03-15T01:19:58;96617.78;;;7.67;100.00
56912;BME280;42800;53.928;27.662;2023-03-15T01:22:25;96613.19;;;7.60;100.00
56912;BME280;42800;53.928;27.662;2023-03-15T01:24:51;96597.91;;;7.97;100.00
56912;BME280;42800;53.928;27.662;2023-03-15T01:27:17;96585.81;;;7.98;100.00
56912;BME280;42800;53.928;27.662;2023-03-15T01:29:43;96589.06;;;7.55;100.00
56912;BME280;42800;53.928;27.662;2023-03-15T01:32:10;96595.44;;;8.06;100.00
56912;BME280;42800;53.928;27.662;2023-03-15T01:34:36;96603.38;;;7.63;100.00
56912;BME280;42800;53.928;27.662;2023-03-15T01:37:02;96580.84;;;7.59;100.00
56912;BME280;42800;53.928;27.662;2023-03-15T01:39:28;96593.34;;;7.56;100.00
56912;BME280;42800;53.928;27.662;2023-03-15T01:41:53;96570.41;;;7.53;100.00
56912;BME280;42800;53.928;27.662;2023-03-15T01:44:19;96569.88;;;7.31;100.00
56912;BME280;42800;53.928;27.662;2023-03-15T01:46:46;96573.03;;;7.61;100.00
56912;BME280;42800;53.928;27.662;2023-03-15T01:49:15;96590.53;;;7.29;100.00
56912;BME280;42800;53.928;27.662;2023-03-15T01:51:44;96599.09;;;7.31;100.00
56912;BME280;42800;53.928;27.662;2023-03-15T01:54:14;96579.88;;;7.42;100.00
56912;BME280;42800;53.928;27.662;2023-03-15T01:56:44;96589.09;;;7.17;100.00
56912;BME280;42800;53.928;27.662;2023-03-15T01:59:15;96576.72;;;7.09;100.00
56912;BME280;42800;53.928;27.662;2023-03-15T02:01:42;96581.81;;;7.07;100.00
56912;BME280;42800;53.928;27.662;2023-03-15T02:04:12;96652.19;;;6.67;100.00
56912;BME280;42800;53.928;27.662;2023-03-15T02:06:41;96855.25;;;6.57;100.00
56912;BME280;42800;53.928;27.662;2023-03-15T02:09:13;97008.88;;;6.17;100.00
56912;BME280;42800;53.928;27.662;2023-03-15T02:11:41;97303.94;;;6.27;100.00
56912;BME280;42800;53.928;27.662;2023-03-15T02:14:08;97519.81;;;6.45;100.00
56912;BME280;42800;53.928;27.662;2023-03-15T02:16:37;97642.34;;;6.08;100.00
56912;BME280;42800;53.928;27.662;2023-03-15T02:19:04;97767.84;;;6.06;100.00
56912;BME280;42800;53.928;27.662;2023-03-15T02:21:37;97847.03;;;5.75;100.00
56912;BME280;42800;53.928;27.662;2023-03-15T02:24:15;97916.44;;;5.92;100.00
56912;BME280;42800;53.928;27.662;2023-03-15T02:26:47;97933.44;;;5.85;100.00
56912;BME280;42800;53.928;27.662;2023-03-15T02:29:15;97942.31;;;5.82;100.00
56912;BME280;42800;53.928;27.662;2023-03-15T02:31:41;97952.31;;;5.97;100.00
56912;BME280;42800;53.928;27.662;2023-03-15T02:34:07;97965.56;;;5.99;100.00
56912;BME280;42800;53.928;27.662;2023-03-15T02:36:34;97956.19;;;5.96;100.00
56912;BME280;42800;53.928;27.662;2023-03-15T02:39:11;97947.88;;;5.89;100.00
56912;BME280;42800;53.928;27.662;2023-03-15T02:41:40;97952.03;;;5.83;100.00
56912;BME280;42800;53.928;27.662;2023-03-15T02:44:09;97955.78;;;5.94;100.00
56912;BME280;42800;53.928;27.662;2023-03-15T02:46:38;97932.28;;;5.63;100.00
56912;BME280;42800;53.928;27.662;2023-03-15T02:49:06;97908.56;;;5.60;100.00
56912;BME280;42800;53.928;27.662;2023-03-15T02:51:33;97881.44;;;5.63;100.00
56912;BME280;42800;53.928;27.662;2023-03-15T02:53:59;97859.63;;;5.60;100.00
56912;BME280;42800;53.928;27.662;2023-03-15T02:56:25;97830.97;;;5.43;100.00
56912;BME280;42800;53.928;27.662;2023-03-15T02:58:51;97781.59;;;5.37;100.00
56912;BME280;42800;53.928;27.662;2023-03-15T03:01:17;97769.88;;;5.33;100.00
56912;BME280;42800;53.928;27.662;2023-03-15T03:03:45;97743.78;;;5.29;100.00
56912;BME280;42800;53.928;27.662;2023-03-15T03:06:12;97729.69;;;5.46;100.00
56912;BME280;42800;53.928;27.662;2023-03-15T03:08:39;97679.63;;;5.47;100.00
56912;BME280;42800;53.928;27.662;2023-03-15T03:11:05;97630.75;;;5.51;100.00
56912;BME280;42800;53.928;27.662;2023-03-15T03:13:31;97584.81;;;5.42;100.00
56912;BME280;42800;53.928;27.662;2023-03-15T03:15:57;97544.81;;;5.42;100.00
56912;BME280;42800;53.928;27.662;2023-03-15T03:18:24;97498.56;;;5.39;100.00
56912;BME280;42800;53.928;27.662;2023-03-15T03:20:50;97493.44;;;5.30;100.00
56912;BME280;42800;53.928;27.662;2023-03-15T03:23:19;97512.94;;;5.39;100.00
56912;BME280;42800;53.928;27.662;2023-03-15T03:25:45;97465.56;;;5.37;100.00
56912;BME280;42800;53.928;27.662;2023-03-15T03:28:11;97391.75;;;5.31;100.00
56912;BME280;42800;53.928;27.662;2023-03-15T03:30:37;97384.44;;;5.39;100.00
56912;BME280;42800;53.928;27.662;2023-03-15T03:33:03;97357.25;;;5.35;100.00
56912;BME280;42800;53.928;27.662;2023-03-15T03:35:33;97294.75;;;5.35;100.00
56912;BME280;42800;53.928;27.662;2023-03-15T03:38:00;97246.59;;;5.36;100.00
56912;BME280;42800;53.928;27.662;2023-03-15T03:40:26;97149.16;;;5.31;100.00
56912;BME280;42800;53.928;27.662;2023-03-15T03:42:51;97150.75;;;5.42;100.00
56912;BME280;42800;53.928;27.662;2023-03-15T03:45:17;97070.75;;;5.36;100.00
56912;BME280;42800;53.928;27.662;2023-03-15T03:47:43;97066.50;;;5.35;100.00
56912;BME280;42800;53.928;27.662;2023-03-15T03:50:10;97095.66;;;5.46;100.00
56912;BME280;42800;53.928;27.662;2023-03-15T03:52:36;97046.28;;;5.33;100.00
56912;BME280;42800;53.928;27.662;2023-03-15T03:55:03;97013.34;;;5.38;100.00
56912;BME280;42800;53.928;27.662;2023-03-15T03:57:29;97006.38;;;5.44;100.00
56912;BME280;42800;53.928;27.662;2023-03-15T03:59:54;96985.00;;;5.42;100.00
56912;BME280;42800;53.928;27.662;2023-03-15T04:02:22;96974.13;;;5.42;100.00
56912;BME280;42800;53.928;27.662;2023-03-15T04:04:48;96960.19;;;5.51;100.00
56912;BME280;42800;53.928;27.662;2023-03-15T04:07:14;96925.22;;;5.42;100.00
56912;BME280;42800;53.928;27.662;2023-03-15T04:09:40;96961.72;;;5.41;100.00
56912;BME280;42800;53.928;27.662;2023-03-15T04:12:07;96935.31;;;5.38;100.00
56912;BME280;42800;53.928;27.662;2023-03-15T04:14:33;96933.41;;;5.53;100.00
56912;BME280;42800;53.928;27.662;2023-03-15T04:16:59;96917.41;;;5.19;100.00
56912;BME280;42800;53.928;27.662;2023-03-15T04:19:28;96897.63;;;5.23;100.00
56912;BME280;42800;53.928;27.662;2023-03-15T04:21:54;96894.94;;;5.33;100.00
56912;BME280;42800;53.928;27.662;2023-03-15T04:24:20;96908.91;;;5.39;100.00
56912;BME280;42800;53.928;27.662;2023-03-15T04:26:45;96887.56;;;5.30;100.00
56912;BME280;42800;53.928;27.662;2023-03-15T04:29:12;96897.63;;;5.30;100.00
56912;BME280;42800;53.928;27.662;2023-03-15T04:31:39;96903.47;;;5.35;100.00
56912;BME280;42800;53.928;27.662;2023-03-15T04:34:07;96900.00;;;5.42;100.00
56912;BME280;42800;53.928;27.662;2023-03-15T04:36:33;96956.28;;;5.41;100.00
56912;BME280;42800;53.928;27.662;2023-03-15T04:39:00;96964.78;;;5.26;100.00
56912;BME280;42800;53.928;27.662;2023-03-15T04:41:29;96994.28;;;5.24;100.00
56912;BME280;42800;53.928;27.662;2023-03-15T04:43:54;97014.44;;;5.26;100.00
56912;BME280;42800;53.928;27.662;2023-03-15T04:46:21;97046.25;;;5.22;100.00
56912;BME280;42800;53.928;27.662;2023-03-15T04:48:47;97060.94;;;5.10;100.00
56912;BME280;42800;53.928;27.662;2023-03-15T04:51:13;97102.53;;;5.25;100.00
56912;BME280;42800;53.928;27.662;2023-03-15T04:53:39;97139.47;;;5.33;100.00
56912;BME280;42800;53.928;27.662;2023-03-15T04:56:05;97196.81;;;5.17;100.00
56912;BME280;42800;53.928;27.662;2023-03-15T04:58:31;97334.41;;;5.40;100.00
56912;BME280;42800;53.928;27.662;2023-03-15T05:00:57;97370.78;;;5.32;100.00
56912;BME280;42800;53.928;27.662;2023-03-15T05:03:24;97427.03;;;5.28;100.00
56912;BME280;42800;53.928;27.662;2023-03-15T05:05:49;97497.47;;;5.43;100.00
56912;BME280;42800;53.928;27.662;2023-03-15T05:08:15;97524.75;;;5.21;100.00
56912;BME280;42800;53.928;27.662;2023-03-15T05:10:41;97599.03;;;5.32;100.00
56912;BME280;42800;53.928;27.662;2023-03-15T05:13:07;97617.53;;;5.23;100.00
56912;BME280;42800;53.928;27.662;2023-03-15T05:15:33;97696.94;;;5.12;100.00
56912;BME280;42800;53.928;27.662;2023-03-15T05:18:00;97759.38;;;5.09;100.00
56912;BME280;42800;53.928;27.662;2023-03-15T05:20:27;97795.13;;;5.11;100.00
56912;BME280;42800;53.928;27.662;2023-03-15T05:22:52;97842.22;;;5.41;100.00
56912;BME280;42800;53.928;27.662;2023-03-15T05:25:39;97825.69;;;5.27;100.00
56912;BME280;42800;53.928;27.662;2023-03-15T05:28:05;97811.09;;;5.16;100.00
56912;BME280;42800;53.928;27.662;2023-03-15T05:30:30;97815.69;;;5.35;100.00
56912;BME280;42800;53.928;27.662;2023-03-15T05:32:56;97816.69;;;5.23;100.00
56912;BME280;42800;53.928;27.662;2023-03-15T05:35:22;97821.00;;;5.51;100.00
56912;BME280;42800;53.928;27.662;2023-03-15T05:37:51;97747.47;;;5.40;100.00
56912;BME280;42800;53.928;27.662;2023-03-15T05:40:17;97729.97;;;5.14;100.00
56912;BME280;42800;53.928;27.662;2023-03-15T05:42:43;97751.69;;;5.37;100.00
56912;BME280;42800;53.928;27.662;2023-03-15T05:45:09;97726.81;;;5.35;100.00
56912;BME280;42800;53.928;27.662;2023-03-15T05:47:35;97731.00;;;5.06;100.00
56912;BME280;42800;53.928;27.662;2023-03-15T05:50:01;97781.47;;;5.30;100.00
56912;BME280;42800;53.928;27.662;2023-03-15T05:52:29;97794.78;;;4.93;100.00
56912;BME280;42800;53.928;27.662;2023-03-15T05:54:55;97836.59;;;5.31;100.00
56912;BME280;42800;53.928;27.662;2023-03-15T05:57:21;97782.41;;;5.41;100.00
56912;BME280;42800;53.928;27.662;2023-03-15T05:59:47;97699.38;;;5.17;100.00
56912;BME280;42800;53.928;27.662;2023-03-15T06:02:13;97674.25;;;5.24;100.00
56912;BME280;42800;53.928;27.662;2023-03-15T06:04:39;97658.66;;;5.21;100.00
56912;BME280;42800;53.928;27.662;2023-03-15T06:07:05;97680.59;;;5.35;100.00
56912;BME280;42800;53.928;27.662;2023-03-15T06:09:31;97627.41;;;5.34;100.00
56912;BME280;42800;53.928;27.662;2023-03-15T06:11:58;97603.88;;;5.46;100.00
56912;BME280;42800;53.928;27.662;2023-03-15T06:14:24;97556.34;;;5.32;100.00
56912;BME280;42800;53.928;27.662;2023-03-15T06:16:50;97536.34;;;5.48;100.00
56912;BME280;42800;53.928;27.662;2023-03-15T06:19:16;97484.94;;;5.73;100.00
56912;BME280;42800;53.928;27.662;2023-03-15T06:21:42;97411.38;;;5.96;100.00
56912;BME280;42800;53.928;27.662;2023-03-15T06:24:08;97292.31;;;5.75;100.00
56912;BME280;42800;53.928;27.662;2023-03-15T06:26:34;97245.56;;;6.13;100.00
56912;BME280;42800;53.928;27.662;2023-03-15T06:29:01;97150.28;;;5.99;100.00
56912;BME280;42800;53.928;27.662;2023-03-15T06:31:26;97115.41;;;6.62;100.00
56912;BME280;42800;53.928;27.662;2023-03-15T06:33:52;97020.91;;;6.59;100.00
56912;BME280;42800;53.928;27.662;2023-03-15T06:36:18;96977.00;;;6.14;100.00
56912;BME280;42800;53.928;27.662;2023-03-15T06:38:44;96980.88;;;6.27;100.00
56912;BME280;42800;53.928;27.662;2023-03-15T06:41:10;96926.81;;;6.47;100.00
56912;BME280;42800;53.928;27.662;2023-03-15T06:43:39;96903.16;;;6.30;100.00
56912;BME280;42800;53.928;27.662;2023-03-15T06:46:06;96880.53;;;6.54;100.00
56912;BME280;42800;53.928;27.662;2023-03-15T06:48:32;96857.44;;;6.91;100.00
56912;BME280;42800;53.928;27.662;2023-03-15T06:50:58;96849.00;;;6.60;100.00
56912;BME280;42800;53.928;27.662;2023-03-15T06:53:24;96849.38;;;6.70;100.00
56912;BME280;42800;53.928;27.662;2023-03-15T06:55:50;96831.50;;;6.62;100.00
56912;BME280;42800;53.928;27.662;2023-03-15T06:58:16;96836.09;;;6.79;100.00
56912;BME280;42800;53.928;27.662;2023-03-15T07:00:42;96843.38;;;7.03;100.00
56912;BME280;42800;53.928;27.662;2023-03-15T07:03:09;96844.66;;;6.81;100.00
56912;BME280;42800;53.928;27.662;2023-03-15T07:05:35;96838.31;;;6.98;100.00
56912;BME280;42800;53.928;27.662;2023-03-15T07:08:01;96837.25;;;6.81;100.00
56912;BME280;42800;53.928;27.662;2023-03-15T07:10:27;96837.72;;;6.58;100.00
56912;BME280;42800;53.928;27.662;2023-03-15T07:12:53;96852.50;;;6.65;100.00
56912;BME280;42800;53.928;27.662;2023-03-15T07:15:19;96849.84;;;6.47;100.00
56912;BME280;42800;53.928;27.662;2023-03-15T07:17:45;96854.84;;;6.55;100.00
56912;BME280;42800;53.928;27.662;2023-03-15T07:20:12;96851.00;;;6.39;100.00
56912;BME280;42800;53.928;27.662;2023-03-15T07:22:38;96854.44;;;6.64;100.00
56912;BME280;42800;53.928;27.662;2023-03-15T07:25:05;96859.44;;;6.73;100.00
56912;BME280;42800;53.928;27.662;2023-03-15T07:27:31;96858.19;;;6.92;100.00
56912;BME280;42800;53.928;27.662;2023-03-15T07:29:57;96867.59;;;6.83;100.00
56912;BME280;42800;53.928;27.662;2023-03-15T07:32:23;96867.59;;;6.80;100.00
56912;BME280;42800;53.928;27.662;2023-03-15T07:34:49;96880.25;;;7.19;100.00
56912;BME280;42800;53.928;27.662;2023-03-15T07:37:16;96888.72;;;7.35;100.00
56912;BME280;42800;53.928;27.662;2023-03-15T07:39:42;96900.06;;;7.23;100.00
56912;BME280;42800;53.928;27.662;2023-03-15T07:42:08;96923.84;;;7.82;100.00
56912;BME280;42800;53.928;27.662;2023-03-15T07:44:34;96940.94;;;7.89;100.00
56912;BME280;42800;53.928;27.662;2023-03-15T07:47:00;96958.34;;;7.50;100.00
56912;BME280;42800;53.928;27.662;2023-03-15T07:49:26;96949.34;;;7.57;100.00
56912;BME280;42800;53.928;27.662;2023-03-15T07:51:52;96946.91;;;7.73;100.00
56912;BME280;42800;53.928;27.662;2023-03-15T07:54:18;96951.75;;;7.44;100.00
56912;BME280;42800;53.928;27.662;2023-03-15T07:56:44;96965.47;;;7.96;100.00
56912;BME280;42800;53.928;27.662;2023-03-15T07:59:10;97000.63;;;8.39;100.00
56912;BME280;42800;53.928;27.662;2023-03-15T08:01:36;97034.13;;;7.84;100.00
56912;BME280;42800;53.928;27.662;2023-03-15T08:04:02;97039.88;;;8.04;100.00
56912;BME280;42800;53.928;27.662;2023-03-15T08:06:28;97072.16;;;8.72;100.00
56912;BME280;42800;53.928;27.662;2023-03-15T08:08:54;97097.97;;;9.09;100.00
56912;BME280;42800;53.928;27.662;2023-03-15T08:11:21;97173.13;;;8.90;100.00
56912;BME280;42800;53.928;27.662;2023-03-15T08:13:47;97209.03;;;8.85;100.00
56912;BME280;42800;53.928;27.662;2023-03-15T08:16:13;97198.75;;;8.47;100.00
56912;BME280;42800;53.928;27.662;2023-03-15T08:18:39;97153.53;;;8.36;100.00
56912;BME280;42800;53.928;27.662;2023-03-15T08:21:05;97166.09;;;8.15;100.00
56912;BME280;42800;53.928;27.662;2023-03-15T08:23:31;97130.84;;;8.46;100.00
56912;BME280;42800;53.928;27.662;2023-03-15T08:25:57;97149.47;;;8.65;100.00
56912;BME280;42800;53.928;27.662;2023-03-15T08:28:24;97152.75;;;8.35;100.00
56912;BME280;42800;53.928;27.662;2023-03-15T08:30:50;97149.47;;;7.88;100.00
56912;BME280;42800;53.928;27.662;2023-03-15T08:33:16;97165.16;;;8.54;100.00
56912;BME280;42800;53.928;27.662;2023-03-15T08:35:42;97150.00;;;8.98;100.00
56912;BME280;42800;53.928;27.662;2023-03-15T08:38:08;97167.34;;;8.77;100.00
56912;BME280;42800;53.928;27.662;2023-03-15T08:40:34;97170.75;;;8.92;100.00
56912;BME280;42800;53.928;27.662;2023-03-15T08:43:00;97192.81;;;9.15;100.00
56912;BME280;42800;53.928;27.662;2023-03-15T08:45:26;97168.78;;;8.92;100.00
56912;BME280;42800;53.928;27.662;2023-03-15T08:47:55;97166.66;;;8.62;100.00
56912;BME280;42800;53.928;27.662;2023-03-15T08:50:21;97193.44;;;8.85;100.00
56912;BME280;42800;53.928;27.662;2023-03-15T08:52:47;97183.75;;;8.77;100.00
56912;BME280;42800;53.928;27.662;2023-03-15T08:55:13;97179.28;;;8.98;100.00
56912;BME280;42800;53.928;27.662;2023-03-15T08:57:40;97201.78;;;8.64;100.00
56912;BME280;42800;53.928;27.662;2023-03-15T09:00:07;97183.88;;;8.52;100.00
56912;BME280;42800;53.928;27.662;2023-03-15T09:02:35;97159.75;;;8.47;100.00
56912;BME280;42800;53.928;27.662;2023-03-15T09:05:01;97151.00;;;8.70;100.00
56912;BME280;42800;53.928;27.662;2023-03-15T09:07:27;97163.50;;;8.67;100.00
56912;BME280;42800;53.928;27.662;2023-03-15T09:09:53;97166.53;;;8.80;100.00
56912;BME280;42800;53.928;27.662;2023-03-15T09:12:20;97153.47;;;9.02;100.00
56912;BME280;42800;53.928;27.662;2023-03-15T09:14:46;97145.03;;;8.82;100.00
56912;BME280;42800;53.928;27.662;2023-03-15T09:17:12;97164.91;;;8.90;100.00
56912;BME280;42800;53.928;27.662;2023-03-15T09:19:39;97153.00;;;9.14;100.00
56912;BME280;42800;53.928;27.662;2023-03-15T09:22:06;97161.97;;;9.15;100.00
56912;BME280;42800;53.928;27.662;2023-03-15T09:24:32;97172.50;;;9.13;100.00
56912;BME280;42800;53.928;27.662;2023-03-15T09:26:58;97152.22;;;9.14;100.00
56912;BME280;42800;53.928;27.662;2023-03-15T09:29:24;97154.66;;;9.01;100.00
56912;BME280;42800;53.928;27.662;2023-03-15T09:31:49;97127.19;;;9.15;100.00
56912;BME280;42800;53.928;27.662;2023-03-15T09:34:15;97136.63;;;9.11;100.00
56912;BME280;42800;53.928;27.662;2023-03-15T09:36:42;97154.59;;;9.08;100.00
56912;BME280;42800;53.928;27.662;2023-03-15T09:39:08;97181.47;;;9.17;100.00
56912;BME280;42800;53.928;27.662;2023-03-15T09:41:42;97202.94;;;9.18;100.00
56912;BME280;42800;53.928;27.662;2023-03-15T09:44:14;97189.66;;;9.21;100.00
56912;BME280;42800;53.928;27.662;2023-03-15T09:49:49;97177.84;;;9.31;100.00
56912;BME280;42800;53.928;27.662;2023-03-15T09:52:25;97167.53;;;9.46;100.00
56912;BME280;42800;53.928;27.662;2023-03-15T09:54:55;97180.13;;;9.36;100.00
56912;BME280;42800;53.928;27.662;2023-03-15T09:57:23;97199.25;;;9.36;100.00
56912;BME280;42800;53.928;27.662;2023-03-15T09:59:55;97183.94;;;9.46;100.00
56912;BME280;42800;53.928;27.662;2023-03-15T10:02:24;97173.47;;;9.40;100.00
56912;BME280;42800;53.928;27.662;2023-03-15T10:04:52;97153.09;;;9.45;100.00
56912;BME280;42800;53.928;27.662;2023-03-15T10:07:21;97147.66;;;9.41;100.00
56912;BME280;42800;53.928;27.662;2023-03-15T10:09:47;97126.28;;;9.29;100.00
56912;BME280;42800;53.928;27.662;2023-03-15T10:12:15;97124.50;;;9.12;100.00
56912;BME280;42800;53.928;27.662;2023-03-15T10:15:05;97073.72;;;8.69;100.00
56912;BME280;42800;53.928;27.662;2023-03-15T10:17:44;97066.72;;;8.09;100.00
56912;BME280;42800;53.928;27.662;2023-03-15T10:20:17;97147.53;;;7.82;100.00
56912;BME280;42800;53.928;27.662;2023-03-15T10:22:51;97222.38;;;7.63;100.00
56912;BME280;42800;53.928;27.662;2023-03-15T10:25:22;97322.09;;;7.06;100.00
56912;BME280;42800;53.928;27.662;2023-03-15T10:27:53;97496.31;;;6.74;100.00
56912;BME280;42800;53.928;27.662;2023-03-15T10:30:22;97611.78;;;6.25;100.00
56912;BME280;42800;53.928;27.662;2023-03-15T10:32:51;97750.81;;;6.13;100.00
56912;BME280;42800;53.928;27.662;2023-03-15T10:35:19;97852.66;;;6.12;100.00
56912;BME280;42800;53.928;27.662;2023-03-15T10:37:46;97886.72;;;5.79;100.00
56912;BME280;42800;53.928;27.662;2023-03-15T10:40:13;98002.56;;;5.61;100.00
56912;BME280;42800;53.928;27.662;2023-03-15T10:42:41;98051.84;;;5.59;100.00
56912;BME280;42800;53.928;27.662;2023-03-15T10:45:18;98059.00;;;5.48;100.00
56912;BME280;42800;53.928;27.662;2023-03-15T10:47:46;98075.03;;;5.53;100.00
56912;BME280;42800;53.928;27.662;2023-03-15T10:50:17;98079.75;;;5.37;100.00
56912;BME280;42800;53.928;27.662;2023-03-15T10:52:53;98089.59;;;5.26;100.00
56912;BME280;42800;53.928;27.662;2023-03-15T10:55:29;98107.53;;;5.11;100.00
56912;BME280;42800;53.928;27.662;2023-03-15T10:57:59;98130.84;;;4.96;100.00
56912;BME280;42800;53.928;27.662;2023-03-15T11:00:36;98205.34;;;4.95;100.00
56912;BME280;42800;53.928;27.662;2023-03-15T11:03:04;98214.69;;;4.82;100.00
56912;BME280;42800;53.928;27.662;2023-03-15T11:05:38;98241.94;;;4.85;100.00
56912;BME280;42800;53.928;27.662;2023-03-15T11:08:11;98256.03;;;4.75;100.00
56912;BME280;42800;53.928;27.662;2023-03-15T11:10:37;98285.13;;;4.75;100.00
56912;BME280;42800;53.928;27.662;2023-03-15T11:13:17;98336.34;;;4.76;100.00
56912;BME280;42800;53.928;27.662;2023-03-15T11:15:54;98364.47;;;4.68;100.00
56912;BME280;42800;53.928;27.662;2023-03-15T11:18:26;98418.88;;;4.59;100.00
56912;BME280;42800;53.928;27.662;2023-03-15T11:20:54;98470.25;;;4.64;100.00
56912;BME280;42800;53.928;27.662;2023-03-15T11:23:24;98488.25;;;4.57;100.00
56912;BME280;42800;53.928;27.662;2023-03-15T11:25:52;98498.19;;;4.53;100.00
56912;BME280;42800;53.928;27.662;2023-03-15T11:28:20;98548.66;;;4.54;100.00
56912;BME280;42800;53.928;27.662;2023-03-15T11:30:47;98569.88;;;4.39;100.00
56912;BME280;42800;53.928;27.662;2023-03-15T11:33:25;98600.31;;;4.45;100.00
56912;BME280;42800;53.928;27.662;2023-03-15T11:35:54;98602.34;;;4.36;100.00
56912;BME280;42800;53.928;27.662;2023-03-15T11:38:29;98625.16;;;4.22;100.00
56912;BME280;42800;53.928;27.662;2023-03-15T11:40:58;98635.22;;;4.22;100.00
56912;BME280;42800;53.928;27.662;2023-03-15T11:43:30;98639.28;;;4.28;100.00
56912;BME280;42800;53.928;27.662;2023-03-15T11:46:02;98644.81;;;4.19;100.00
56912;BME280;42800;53.928;27.662;2023-03-15T11:48:33;98633.28;;;3.89;100.00
56912;BME280;42800;53.928;27.662;2023-03-15T11:51:06;98646.72;;;3.86;100.00
56912;BME280;42800;53.928;27.662;2023-03-15T11:53:36;98639.84;;;3.88;100.00
56912;BME280;42800;53.928;27.662;2023-03-15T11:56:19;98650.47;;;3.60;100.00
56912;BME280;42800;53.928;27.662;2023-03-15T11:58:59;98667.16;;;3.83;100.00
56912;BME280;42800;53.928;27.662;2023-03-15T12:01:28;98668.25;;;3.70;100.00
56912;BME280;42800;53.928;27.662;2023-03-15T12:04:27;98681.59;;;3.75;100.00
56912;BME280;42800;53.928;27.662;2023-03-15T12:06:54;98686.69;;;3.56;100.00
56912;BME280;42800;53.928;27.662;2023-03-15T12:09:46;98703.81;;;3.89;100.00
56912;BME280;42800;53.928;27.662;2023-03-15T12:12:43;98702.41;;;3.62;100.00
56912;BME280;42800;53.928;27.662;2023-03-15T12:15:42;98708.03;;;3.57;100.00
56912;BME280;42800;53.928;27.662;2023-03-15T12:18:13;98718.28;;;3.72;100.00
56912;BME280;42800;53.928;27.662;2023-03-15T12:20:43;98714.91;;;3.54;100.00
56912;BME280;42800;53.928;27.662;2023-03-15T12:23:21;98710.94;;;3.52;100.00
56912;BME280;42800;53.928;27.662;2023-03-15T12:25:55;98718.78;;;3.45;100.00
56912;BME280;42800;53.928;27.662;2023-03-15T12:28:25;98733.91;;;3.16;100.00
56912;BME280;42800;53.928;27.662;2023-03-15T12:30:54;98749.47;;;3.37;100.00
56912;BME280;42800;53.928;27.662;2023-03-15T12:33:24;98752.00;;;3.33;100.00
56912;BME280;42800;53.928;27.662;2023-03-15T12:35:58;98753.09;;;3.41;100.00
56912;BME280;42800;53.928;27.662;2023-03-15T12:38:24;98759.19;;;3.59;100.00
56912;BME280;42800;53.928;27.662;2023-03-15T12:40:57;98753.13;;;3.32;100.00
56912;BME280;42800;53.928;27.662;2023-03-15T12:43:44;98767.28;;;3.38;100.00
56912;BME280;42800;53.928;27.662;2023-03-15T12:49:11;98763.31;;;3.35;100.00
56912;BME280;42800;53.928;27.662;2023-03-15T12:51:42;98767.81;;;3.61;100.00
56912;BME280;42800;53.928;27.662;2023-03-15T12:54:10;98767.53;;;3.53;100.00
56912;BME280;42800;53.928;27.662;2023-03-15T12:56:46;98768.00;;;3.56;100.00
56912;BME280;42800;53.928;27.662;2023-03-15T12:59:24;98766.53;;;3.28;100.00
56912;BME280;42800;53.928;27.662;2023-03-15T13:01:52;98772.84;;;3.41;100.00